Time;durP1;ratioP1;P1;durP2;ratioP2;P2;SDS_P1;SDS_P2;PMS_P1;PMS_P2;Temp;Humidity;BMP_temperature;BMP_pressure;BME280_temperature;BME280_humidity;BME280_pressure;Samples;Min_cycle;Max_cycle;Signal;HPM_P1;HPM_P2
2023/09/08 00:03:50;;;;;;;1.65;0.90;;;16.70;91.80;;;15.64;82.37;100802.69;10286105;28;97446;-89
2023/09/08 00:08:54;;;;;;;1.20;0.80;;;16.70;92.20;;;15.51;82.69;100796.09;10291205;28;96661;-89
2023/09/08 00:13:57;;;;;;;1.38;0.73;;;16.60;92.30;;;15.49;82.97;100814.22;10314003;28;96515;-90
2023/09/08 00:19:01;;;;;;;1.83;0.95;;;16.50;92.50;;;15.41;83.77;100805.44;10305746;28;97809;-90
2023/09/08 00:24:05;;;;;;;1.58;0.93;;;16.40;93.00;;;15.34;83.91;100807.19;10312416;28;96626;-90
2023/09/08 00:29:09;;;;;;;1.42;0.70;;;16.40;92.90;;;15.27;84.65;100805.25;10313858;28;96660;-90
2023/09/08 00:34:13;;;;;;;2.78;1.15;;;16.40;93.10;;;15.29;84.54;100814.94;10282606;28;96603;-90
2023/09/08 00:39:16;;;;;;;1.70;0.82;;;16.30;93.20;;;15.22;84.92;100804.97;10308574;28;97250;-90
2023/09/08 00:44:20;;;;;;;2.08;1.00;;;16.30;93.20;;;15.15;85.18;100798.69;10305655;28;96603;-90
2023/09/08 00:49:24;;;;;;;2.80;1.05;;;16.20;94.00;;;15.06;86.16;100793.63;10304889;28;96714;-90
2023/09/08 00:54:28;;;;;;;1.38;0.80;;;16.10;94.00;;;15.06;86.42;100798.97;10297859;28;98633;-90
2023/09/08 00:59:33;;;;;;;3.15;1.20;;;16.10;94.30;;;15.02;86.48;100790.47;10275768;28;96542;-90
2023/09/08 01:04:40;;;;;;;2.10;0.90;;;16.00;94.20;;;15.01;86.51;100787.97;10284328;28;98578;-90
2023/09/08 01:09:47;;;;;;;1.27;0.70;;;16.00;94.50;;;15.05;86.52;100783.91;10300563;28;98245;-90
2023/09/08 01:14:51;;;;;;;2.20;1.15;;;16.10;94.20;;;15.06;86.70;100775.72;10318350;28;96734;-89
2023/09/08 01:19:58;;;;;;;1.20;0.82;;;16.10;94.30;;;15.08;86.82;100779.03;10290785;28;96777;-90
2023/09/08 01:25:22;;;;;;;1.88;0.90;;;16.20;94.40;;;15.04;87.18;100779.56;10316967;28;97586;-90
2023/09/08 01:30:32;;;;;;;1.38;0.70;;;16.10;94.60;;;14.98;86.99;100775.78;10306159;28;96466;-89
2023/09/08 01:35:36;;;;;;;2.38;1.00;;;16.10;94.60;;;14.94;86.69;100778.00;10318439;28;96587;-89
2023/09/08 01:40:40;;;;;;;1.38;0.60;;;16.00;95.00;;;14.83;86.65;100769.56;10291900;28;96598;-90
2023/09/08 01:45:43;;;;;;;1.83;0.80;;;15.90;94.80;;;14.71;87.27;100761.97;10301139;28;96920;-90
2023/09/08 01:50:47;;;;;;;1.65;0.80;;;15.80;95.10;;;14.68;87.38;100765.00;10301752;28;96564;-91
2023/09/08 01:55:51;;;;;;;2.00;0.90;;;15.70;95.30;;;14.58;87.62;100763.63;10294394;28;96903;-90
2023/09/08 02:01:00;;;;;;;1.77;1.05;;;15.70;95.40;;;14.55;88.07;100772.00;10283456;28;96700;-90
2023/09/08 02:06:04;;;;;;;2.22;1.02;;;15.60;95.50;;;14.50;87.95;100769.84;10318348;28;96763;-90
2023/09/08 02:11:08;;;;;;;3.22;1.13;;;15.60;95.40;;;14.47;88.81;100770.22;10267580;28;96651;-90
2023/09/08 02:16:16;;;;;;;1.13;0.73;;;15.60;95.80;;;14.41;88.88;100769.06;10292318;28;98220;-90
2023/09/08 02:21:21;;;;;;;1.63;0.80;;;15.50;96.00;;;14.37;88.81;100775.75;10292167;28;97178;-90
2023/09/08 02:26:27;;;;;;;1.05;0.63;;;15.50;96.00;;;14.29;89.23;100772.31;10317073;28;96930;-89
2023/09/08 02:31:31;;;;;;;1.77;0.85;;;15.40;96.30;;;14.24;89.50;100777.38;10318504;28;96536;-89
2023/09/08 02:36:34;;;;;;;1.23;0.77;;;15.30;96.50;;;14.13;89.64;100786.63;10315104;28;98246;-90
2023/09/08 02:41:39;;;;;;;1.45;0.85;;;15.30;96.40;;;14.08;90.33;100784.47;10313994;28;96750;-90
2023/09/08 02:46:42;;;;;;;2.15;0.80;;;15.20;96.80;;;14.11;90.71;100792.16;10317553;28;96550;-90
2023/09/08 02:51:46;;;;;;;1.88;1.00;;;15.20;96.80;;;14.05;90.87;100776.81;10300064;28;96623;-90
2023/09/08 02:56:51;;;;;;;1.60;1.00;;;15.20;97.10;;;13.96;91.62;100777.88;10304604;28;96825;-89
2023/09/08 03:01:55;;;;;;;1.70;0.80;;;15.10;97.70;;;13.90;92.39;100774.06;10356906;28;96737;-90
2023/09/08 03:06:59;;;;;;;1.73;0.93;;;15.00;97.80;;;13.86;93.35;100763.91;10339264;28;97279;-90
2023/09/08 03:12:04;;;;;;;2.33;1.00;;;15.00;98.50;;;13.87;93.41;100766.41;10341753;28;97531;-90
2023/09/08 03:17:09;;;;;;;1.83;0.90;;;15.00;98.60;;;13.84;93.73;100760.56;10324824;28;96652;-90
2023/09/08 03:22:13;;;;;;;1.43;1.10;;;15.00;98.80;;;13.83;94.05;100761.59;10357165;28;97781;-90
2023/09/08 03:27:17;;;;;;;1.60;1.10;;;14.90;98.80;;;13.78;93.94;100758.59;10310353;28;96632;-89
2023/09/08 03:32:20;;;;;;;1.90;0.90;;;15.00;98.90;;;13.83;94.15;100773.09;10374369;28;96587;-89
2023/09/08 03:37:26;;;;;;;2.63;0.87;;;15.00;98.80;;;13.83;94.31;100773.09;10338180;28;96591;-89
2023/09/08 03:42:30;;;;;;;4.57;1.03;;;15.00;98.90;;;13.87;94.43;100782.44;10334319;28;96680;-90
2023/09/08 03:47:34;;;;;;;3.40;1.67;;;15.00;98.70;;;13.89;94.32;100782.25;10339336;28;96805;-89
2023/09/08 03:52:38;;;;;;;2.85;1.67;;;15.00;98.90;;;13.88;94.71;100776.06;10323188;28;97754;-90
2023/09/08 03:57:42;;;;;;;2.97;1.30;;;15.00;98.90;;;13.85;94.38;100778.25;10327010;28;96512;-89
2023/09/08 04:02:45;;;;;;;1.73;1.10;;;15.00;99.00;;;13.83;94.45;100777.59;10354569;28;96842;-89
2023/09/08 04:07:49;;;;;;;1.42;0.82;;;15.00;98.90;;;13.86;94.41;100796.81;10351270;28;96578;-89
2023/09/08 04:12:53;;;;;;;1.37;0.93;;;15.00;99.00;;;13.83;94.77;100788.28;10357047;28;98082;-89
2023/09/08 04:18:00;;;;;;;1.50;0.90;;;15.00;99.10;;;13.85;94.91;100796.94;10349445;28;96778;-90
2023/09/08 04:23:04;;;;;;;1.83;1.20;;;15.00;99.00;;;13.79;95.06;100794.97;10365839;28;98786;-90
2023/09/08 04:28:08;;;;;;;1.45;0.70;;;15.00;99.40;;;13.73;95.23;100788.50;10369461;28;96510;-89
2023/09/08 04:33:12;;;;;;;2.70;0.77;;;14.90;99.40;;;13.77;95.31;100802.34;10367961;28;97434;-89
2023/09/08 04:38:16;;;;;;;1.70;0.90;;;14.90;99.30;;;13.80;95.82;100799.34;10366449;28;96561;-89
2023/09/08 04:43:20;;;;;;;2.30;1.15;;;14.90;99.50;;;13.87;96.42;100801.13;10353589;28;96491;-90
2023/09/08 04:48:23;;;;;;;2.65;1.20;;;15.00;99.90;;;13.90;96.37;100815.97;10369618;28;96736;-89
2023/09/08 04:53:27;;;;;;;3.20;1.20;;;15.00;99.90;;;13.96;96.79;100793.91;10349140;28;96808;-90
2023/09/08 04:58:31;;;;;;;3.13;1.42;;;15.10;99.90;;;14.08;97.24;100810.38;10376603;28;96516;-88
2023/09/08 05:03:36;;;;;;;1.98;1.02;;;15.20;99.90;;;14.16;97.81;100810.34;10400245;28;96577;-88
2023/09/08 05:08:40;;;;;;;2.28;1.05;;;15.20;99.90;;;14.28;97.74;100808.09;10404254;28;96515;-87
2023/09/08 05:13:43;;;;;;;1.55;0.82;;;15.30;99.90;;;14.36;97.91;100803.50;10417142;28;97798;-88
2023/09/08 05:18:47;;;;;;;1.33;0.80;;;15.40;99.90;;;14.49;97.90;100810.13;10380201;28;96723;-90
2023/09/08 05:23:51;;;;;;;2.20;0.95;;;15.60;99.90;;;14.59;97.70;100787.50;10357145;28;96672;-89
2023/09/08 05:28:55;;;;;;;1.50;1.02;;;15.70;99.90;;;14.83;97.98;100801.69;10356468;28;96945;-89
2023/09/08 05:33:58;;;;;;;1.63;1.00;;;15.90;99.90;;;15.06;97.97;100818.53;10335251;28;97297;-88
2023/09/08 05:39:02;;;;;;;1.67;1.17;;;16.10;99.90;;;15.21;97.99;100805.97;10344946;28;96705;-90
2023/09/08 05:44:06;;;;;;;1.85;1.25;;;16.30;99.90;;;15.46;97.60;100813.75;10346384;28;97947;-90
2023/09/08 05:49:10;;;;;;;2.47;1.23;;;16.50;99.90;;;15.66;96.96;100817.56;10310900;28;97543;-90
2023/09/08 05:54:13;;;;;;;2.88;1.38;;;16.70;99.90;;;15.84;96.48;100805.66;10366178;28;97744;-90
2023/09/08 05:59:17;;;;;;;2.97;1.45;;;16.90;99.90;;;16.03;96.20;100805.03;10353354;28;96688;-89
2023/09/08 06:04:20;;;;;;;3.65;1.20;;;17.10;99.90;;;16.28;95.89;100811.72;10357972;28;98440;-89
2023/09/08 06:09:24;;;;;;;1.50;1.10;;;17.30;99.70;;;16.54;95.51;100807.63;10362663;28;96615;-89
2023/09/08 06:14:29;;;;;;;1.80;1.00;;;17.60;99.80;;;16.81;95.15;100804.19;10377717;28;96493;-88
2023/09/08 06:19:34;;;;;;;1.55;1.13;;;17.90;99.60;;;17.08;94.29;100815.13;10345541;28;97715;-88
2023/09/08 06:24:38;;;;;;;2.85;1.40;;;18.10;99.40;;;17.30;93.89;100813.22;10354328;28;98664;-90
2023/09/08 06:29:43;;;;;;;2.63;1.40;;;18.40;99.20;;;17.57;93.33;100804.31;10335318;28;96674;-89
2023/09/08 06:34:47;;;;;;;3.58;1.48;;;18.70;98.90;;;17.94;92.56;100814.84;10358344;28;97421;-89
2023/09/08 06:39:50;;;;;;;3.83;1.42;;;19.00;98.80;;;18.27;90.71;100814.94;10355444;28;96650;-88
2023/09/08 06:44:54;;;;;;;2.05;1.10;;;19.30;98.30;;;18.61;89.70;100804.03;10325593;28;97600;-89
2023/09/08 06:49:58;;;;;;;2.65;1.60;;;19.60;98.20;;;18.88;88.52;100796.81;10355312;28;97217;-89
2023/09/08 06:55:02;;;;;;;2.25;1.25;;;20.00;98.10;;;19.16;88.05;100790.38;10359893;28;96664;-89
2023/09/08 07:00:07;;;;;;;2.05;1.15;;;20.30;98.00;;;19.43;86.70;100791.13;10337572;28;96720;-88
2023/09/08 07:05:11;;;;;;;2.50;1.15;;;20.50;97.80;;;19.79;83.84;100804.09;10338212;28;96609;-88
2023/09/08 07:10:15;;;;;;;1.50;0.93;;;20.80;97.30;;;20.00;81.06;100794.88;10354150;28;96627;-88
2023/09/08 07:15:19;;;;;;;1.38;0.90;;;21.10;96.40;;;20.26;79.46;100788.50;10347296;28;97044;-89
2023/09/08 07:20:22;;;;;;;2.65;1.42;;;21.30;95.90;;;20.48;76.55;100783.63;10341389;28;96680;-89
2023/09/08 07:25:26;;;;;;;1.88;1.05;;;21.60;95.30;;;20.66;74.44;100778.28;10354054;28;96848;-89
2023/09/08 07:30:32;;;;;;;2.15;1.23;;;21.80;94.70;;;20.83;73.50;100767.78;10357988;28;96542;-89
2023/09/08 07:35:40;;;;;;;2.13;1.30;;;22.00;94.30;;;21.07;72.98;100761.50;10340791;28;97045;-89
2023/09/08 07:40:44;;;;;;;1.88;1.20;;;22.30;93.80;;;21.31;70.92;100759.84;10340344;28;96886;-90
2023/09/08 07:45:47;;;;;;;2.70;1.20;;;22.50;93.20;;;21.57;68.73;100768.69;10334515;28;98441;-90
2023/09/08 07:50:51;;;;;;;1.52;0.90;;;22.70;92.70;;;21.78;67.53;100757.41;10354766;28;97437;-90
2023/09/08 07:56:04;;;;;;;2.38;1.00;;;22.90;92.20;;;21.99;66.36;100764.19;10373886;28;97506;-89
2023/09/08 08:01:08;;;;;;;1.40;1.17;;;23.10;91.50;;;22.18;65.77;100760.41;10356514;28;97297;-90
2023/09/08 08:06:12;;;;;;;2.55;1.50;;;23.30;91.10;;;22.41;64.97;100761.53;10337176;28;96902;-90
2023/09/08 08:11:20;;;;;;;3.42;1.27;;;23.50;90.60;;;22.56;61.48;100764.63;10355077;28;97350;-90
2023/09/08 08:16:24;;;;;;;1.77;1.10;;;23.70;89.40;;;22.63;62.59;100759.94;10327871;28;98563;-89
2023/09/08 08:21:28;;;;;;;3.15;1.45;;;23.90;89.10;;;22.86;62.69;100758.31;10352288;28;99065;-90
2023/09/08 08:26:32;;;;;;;2.75;1.10;;;24.00;88.60;;;23.06;59.74;100758.78;10353330;28;96646;-91
2023/09/08 08:31:36;;;;;;;1.58;0.93;;;24.20;87.50;;;23.22;60.30;100754.53;10348785;28;96601;-91
2023/09/08 08:36:40;;;;;;;2.13;1.40;;;24.40;86.90;;;23.44;60.02;100749.31;10350441;28;97491;-90
2023/09/08 08:41:44;;;;;;;2.05;1.05;;;24.60;85.90;;;23.60;57.05;100745.03;10356468;28;96747;-90
2023/09/08 08:46:50;;;;;;;2.05;1.35;;;24.80;84.40;;;23.77;56.24;100744.06;10319928;28;98166;-90
2023/09/08 08:51:54;;;;;;;2.17;1.20;;;24.90;83.00;;;23.95;54.37;100739.50;10331348;28;99029;-90
2023/09/08 08:56:59;;;;;;;4.15;1.52;;;25.10;81.50;;;24.06;53.75;100738.63;10350379;28;97899;-90
2023/09/08 09:02:04;;;;;;;2.20;1.20;;;25.20;80.60;;;24.10;53.81;100723.47;10341532;28;98341;-88
2023/09/08 09:07:08;;;;;;;2.20;1.00;;;25.30;79.90;;;24.32;53.12;100726.31;10353065;28;96699;-90
2023/09/08 09:12:12;;;;;;;1.73;1.13;;;25.50;79.50;;;24.59;53.06;100721.09;10319923;28;96745;-90
2023/09/08 09:17:16;;;;;;;3.63;1.58;;;25.70;78.80;;;24.72;51.38;100723.47;10362588;28;97277;-89
2023/09/08 09:22:21;;;;;;;1.55;1.05;;;25.90;77.00;;;24.82;50.68;100715.44;10362217;28;96531;-90
2023/09/08 09:27:26;;;;;;;1.48;0.82;;;26.00;76.30;;;24.96;49.59;100717.84;10344981;28;96539;-89
2023/09/08 09:32:31;;;;;;;1.25;0.98;;;26.20;75.30;;;25.04;49.25;100715.50;10344676;28;96529;-90
2023/09/08 09:37:35;;;;;;;1.83;1.10;;;26.30;74.30;;;25.22;47.21;100706.25;10379157;28;96660;-90
2023/09/08 09:42:42;;;;;;;1.73;1.00;;;26.50;73.10;;;25.33;47.67;100701.75;10358240;28;98827;-90
2023/09/08 09:47:46;;;;;;;1.52;0.90;;;26.70;72.80;;;25.64;48.53;100702.94;10345970;28;97001;-90
2023/09/08 09:52:50;;;;;;;1.52;0.70;;;26.90;72.90;;;25.91;46.64;100699.41;10360625;28;96495;-90
2023/09/08 09:58:00;;;;;;;1.30;0.70;;;27.10;71.30;;;26.09;45.36;100702.63;10322994;28;98687;-89
2023/09/08 10:03:05;;;;;;;1.48;0.88;;;27.20;70.20;;;26.08;44.83;100700.94;10344183;28;98206;-90
2023/09/08 10:08:09;;;;;;;2.28;1.20;;;27.30;69.10;;;26.24;44.99;100707.38;10361474;28;96481;-89
2023/09/08 10:13:16;;;;;;;1.50;1.00;;;27.40;69.00;;;26.42;46.61;100684.38;10375973;28;96642;-89
2023/09/08 10:18:21;;;;;;;2.67;1.27;;;27.60;69.60;;;26.71;45.49;100682.13;10363087;28;96560;-90
2023/09/08 10:23:33;;;;;;;1.98;1.20;;;27.80;68.50;;;26.80;43.76;100682.44;10343898;28;96544;-89
2023/09/08 10:28:38;;;;;;;1.63;1.13;;;27.90;67.90;;;26.65;44.08;100672.28;10343183;28;96583;-90
2023/09/08 10:33:43;;;;;;;1.90;1.23;;;27.80;68.00;;;26.81;43.89;100678.63;10333636;28;96822;-89
2023/09/08 10:38:50;;;;;;;1.95;0.98;;;27.90;67.20;;;26.87;44.57;100667.53;10340066;28;98375;-89
2023/09/08 10:44:04;;;;;;;2.00;1.08;;;27.90;67.60;;;26.95;44.92;100667.00;10340566;28;96610;-91
2023/09/08 10:49:10;;;;;;;1.77;1.20;;;28.10;67.50;;;27.17;44.91;100668.78;10341693;28;98119;-90
2023/09/08 10:54:50;;;;;;;2.33;1.08;;;28.30;67.80;;;27.41;44.38;100658.22;10343165;28;97841;-90
2023/09/08 11:00:01;;;;;;;1.65;1.05;;;28.50;67.20;;;27.53;43.29;100650.63;10343901;28;96677;-89
2023/09/08 11:05:15;;;;;;;1.27;1.00;;;28.70;66.40;;;27.63;42.16;100656.06;10343075;28;96785;-88
2023/09/08 11:10:19;;;;;;;1.50;1.10;;;28.90;65.70;;;27.78;41.75;100647.13;10341357;28;96549;-89
2023/09/08 11:15:23;;;;;;;1.85;1.00;;;29.00;65.20;;;27.78;40.01;100636.22;10338733;28;96527;-89
2023/09/08 11:20:27;;;;;;;1.42;1.00;;;29.00;63.60;;;27.94;39.72;100632.38;10343028;28;96593;-90
2023/09/08 11:25:33;;;;;;;1.50;0.85;;;29.10;62.90;;;28.35;38.91;100632.41;10343164;28;96541;-91
2023/09/08 11:30:37;;;;;;;1.05;0.90;;;29.40;62.40;;;28.53;36.95;100626.34;10333287;28;96663;-89
2023/09/08 11:35:43;;;;;;;1.35;0.70;;;29.60;60.90;;;28.57;37.48;100614.88;10363304;28;96648;-89
2023/09/08 11:40:47;;;;;;;1.00;0.70;;;29.70;60.70;;;28.68;36.68;100619.22;10351459;28;96860;-89
2023/09/08 11:45:51;;;;;;;1.80;1.10;;;29.90;59.40;;;28.76;36.69;100614.00;10357309;28;96563;-89
2023/09/08 11:50:55;;;;;;;2.13;1.05;;;29.90;59.30;;;28.97;37.18;100601.09;10357069;28;96902;-90
2023/09/08 11:55:59;;;;;;;1.58;1.00;;;30.10;59.10;;;28.95;36.32;100608.75;10348604;28;97165;-90
2023/09/08 12:01:04;;;;;;;1.52;0.90;;;30.20;57.80;;;29.28;35.32;100601.75;10336863;28;98097;-89
2023/09/08 12:06:08;;;;;;;1.95;0.95;;;30.50;57.60;;;29.32;34.48;100594.59;10351576;28;97536;-89
2023/09/08 12:11:12;;;;;;;1.33;0.75;;;30.60;57.00;;;29.38;34.13;100586.34;10338415;28;96527;-88
2023/09/08 12:16:22;;;;;;;1.98;1.02;;;30.70;56.10;;;29.33;34.15;100584.50;10336040;28;96577;-89
2023/09/08 12:21:26;;;;;;;1.88;1.10;;;30.60;55.60;;;29.30;34.87;100579.56;10338357;28;96828;-89
2023/09/08 12:26:30;;;;;;;1.83;0.98;;;30.50;55.90;;;29.12;34.09;100577.47;10338417;28;96700;-90
2023/09/08 12:31:34;;;;;;;1.70;0.90;;;30.30;55.70;;;29.00;33.26;100567.69;10335435;28;97779;-90
2023/09/08 12:36:44;;;;;;;1.45;0.80;;;30.10;53.90;;;28.75;33.36;100571.34;10340647;28;96533;-91
2023/09/08 12:41:47;;;;;;;1.75;0.90;;;29.90;53.40;;;28.67;33.22;100565.59;10363616;28;96594;-89
2023/09/08 12:46:51;;;;;;;1.17;0.65;;;29.80;53.70;;;28.54;33.32;100556.91;10343235;28;96623;-88
2023/09/08 12:51:55;;;;;;;1.00;0.73;;;29.70;53.60;;;28.33;32.04;100560.81;10345504;28;96768;-88
2023/09/08 12:56:58;;;;;;;1.60;0.88;;;29.50;52.40;;;28.20;32.43;100553.16;10358901;28;96718;-89
2023/09/08 13:02:03;;;;;;;1.27;0.77;;;29.30;52.50;;;28.29;33.44;100543.28;10361176;28;98356;-90
2023/09/08 13:07:07;;;;;;;1.45;0.90;;;29.40;53.00;;;28.17;32.77;100540.03;10345436;28;96680;-90
2023/09/08 13:12:13;;;;;;;1.77;0.98;;;29.30;52.80;;;28.11;33.24;100541.16;10361414;28;96659;-90
2023/09/08 13:17:16;;;;;;;1.13;0.70;;;29.10;53.10;;;27.95;33.59;100538.44;10363418;28;96669;-88
2023/09/08 13:22:20;;;;;;;1.13;0.70;;;29.00;53.10;;;27.83;33.44;100537.91;10361507;28;96523;-90
2023/09/08 13:27:24;;;;;;;1.98;1.10;;;28.90;53.00;;;27.87;33.37;100540.91;10363209;28;96522;-90
2023/09/08 13:32:28;;;;;;;1.00;0.70;;;28.90;53.00;;;27.83;33.02;100535.19;10357341;28;96742;-89
2023/09/08 13:37:34;;;;;;;1.00;0.60;;;28.90;52.80;;;27.80;33.29;100524.78;10361729;28;97528;-91
2023/09/08 13:42:37;;;;;;;1.85;0.60;;;28.80;52.90;;;27.84;33.75;100519.63;10344512;28;96588;-91
2023/09/08 13:47:41;;;;;;;1.63;0.80;;;28.80;53.20;;;27.85;33.63;100516.59;10359824;28;96628;-90
2023/09/08 13:52:45;;;;;;;1.52;0.75;;;28.90;53.30;;;27.98;34.06;100512.50;10344598;28;96587;-91
2023/09/08 13:57:50;;;;;;;1.60;0.80;;;29.10;53.30;;;28.09;34.03;100510.56;10340440;28;96511;-91
2023/09/08 14:02:58;;;;;;;1.27;0.73;;;29.10;53.10;;;28.06;33.19;100497.44;10335951;28;96694;-90
2023/09/08 14:08:08;;;;;;;1.00;0.50;;;29.10;52.90;;;28.04;33.68;100507.84;10342127;28;96884;-90
2023/09/08 14:13:17;;;;;;;1.10;0.70;;;29.00;52.90;;;27.88;33.29;100499.66;10355294;28;98288;-90
2023/09/08 14:18:21;;;;;;;1.42;0.70;;;28.90;52.40;;;27.82;33.88;100484.38;10352045;28;96741;-90
2023/09/08 14:23:25;;;;;;;1.35;0.73;;;28.90;52.90;;;27.87;33.80;100489.00;10361950;28;96678;-87
2023/09/08 14:28:32;;;;;;;1.85;0.93;;;28.90;52.80;;;27.91;33.68;100492.84;10342635;28;96608;-90
2023/09/08 14:33:35;;;;;;;0.82;0.68;;;29.00;52.80;;;28.07;33.95;100485.41;10331874;28;98527;-90
2023/09/08 14:38:39;;;;;;;1.88;0.90;;;29.20;53.00;;;28.24;33.42;100484.00;10346308;28;96644;-89
2023/09/08 14:43:43;;;;;;;0.93;0.60;;;29.50;52.70;;;28.47;32.90;100481.78;10341506;28;96963;-91
2023/09/08 14:48:46;;;;;;;1.27;0.65;;;29.80;52.50;;;28.59;32.13;100475.97;10319190;28;97001;-91
2023/09/08 14:53:50;;;;;;;1.83;0.82;;;29.90;51.90;;;28.74;32.18;100475.91;10356836;28;98631;-90
2023/09/08 14:58:54;;;;;;;1.13;0.80;;;30.10;51.60;;;28.86;31.37;100476.38;10343401;28;97582;-91
2023/09/08 15:03:57;;;;;;;1.30;0.80;;;30.30;50.60;;;29.07;31.34;100477.09;10324825;28;96718;-89
2023/09/08 15:09:01;;;;;;;1.63;0.70;;;30.60;50.90;;;29.41;30.64;100468.91;10343102;28;96552;-88
2023/09/08 15:14:06;;;;;;;0.98;0.65;;;31.20;50.50;;;29.99;29.78;100473.56;10339980;28;98728;-90
2023/09/08 15:19:10;;;;;;;1.15;0.63;;;32.10;50.20;;;30.39;29.28;100472.31;10358478;28;96625;-90
2023/09/08 15:24:13;;;;;;;1.48;0.80;;;32.50;49.00;;;30.77;28.60;100469.66;10356652;28;96577;-89
2023/09/08 15:29:19;;;;;;;1.52;0.90;;;32.90;48.80;;;30.92;28.10;100474.94;10350301;28;97920;-90
2023/09/08 15:34:23;;;;;;;1.15;0.70;;;33.10;48.00;;;31.28;28.03;100460.69;10334488;28;96631;-89
2023/09/08 15:39:30;;;;;;;1.58;0.68;;;33.40;48.10;;;31.37;27.87;100469.88;10353062;28;96723;-89
2023/09/08 15:44:33;;;;;;;1.50;0.90;;;33.50;47.80;;;31.21;27.13;100458.31;10338905;28;96615;-89
2023/09/08 15:49:37;;;;;;;1.38;0.68;;;33.50;47.00;;;31.12;27.33;100466.38;10331505;28;96641;-90
2023/09/08 15:54:41;;;;;;;1.23;0.75;;;33.20;47.00;;;30.82;28.00;100469.59;10345068;28;96619;-90
2023/09/08 15:59:45;;;;;;;1.40;0.68;;;32.90;46.80;;;30.19;27.80;100472.59;10323402;28;96847;-89
2023/09/08 16:04:48;;;;;;;1.20;0.75;;;32.10;46.40;;;29.52;28.96;100467.75;10340050;28;97013;-89
2023/09/08 16:09:52;;;;;;;0.98;0.50;;;31.30;47.00;;;28.91;29.95;100462.69;10312990;28;96950;-90
2023/09/08 16:14:56;;;;;;;0.90;0.57;;;30.60;47.60;;;28.38;30.94;100442.47;10345009;28;96632;-90
2023/09/08 16:19:59;;;;;;;1.30;0.75;;;29.90;48.10;;;28.04;31.98;100461.41;10351247;28;96694;-90
2023/09/08 16:25:04;;;;;;;2.05;0.93;;;29.50;48.60;;;27.71;33.25;100463.66;10314883;28;97248;-90
2023/09/08 16:30:08;;;;;;;1.25;0.45;;;29.00;49.50;;;27.30;34.57;100452.72;10308395;28;96671;-90
2023/09/08 16:35:13;;;;;;;1.23;0.80;;;28.50;50.20;;;26.88;36.13;100453.75;10337910;28;97130;-90
2023/09/08 16:40:17;;;;;;;1.38;0.85;;;28.00;51.30;;;26.50;37.47;100454.16;10321340;28;98293;-90
2023/09/08 16:45:20;;;;;;;1.63;0.63;;;27.60;52.60;;;26.04;38.72;100459.38;10341006;28;96659;-89
2023/09/08 16:50:24;;;;;;;1.75;1.00;;;27.00;53.70;;;25.62;39.89;100473.78;10355796;28;97959;-90
2023/09/08 16:55:27;;;;;;;1.73;0.98;;;26.50;54.50;;;25.12;41.54;100464.09;10330681;28;97376;-90
2023/09/08 17:00:31;;;;;;;1.63;0.70;;;26.00;55.70;;;24.62;41.56;100470.59;10335347;28;98402;-90
2023/09/08 17:05:35;;;;;;;1.00;0.70;;;25.60;55.90;;;24.30;42.26;100471.28;10330412;28;96588;-89
2023/09/08 17:10:39;;;;;;;1.13;0.60;;;25.30;56.70;;;23.97;42.54;100483.03;10320022;28;98645;-90
2023/09/08 17:15:42;;;;;;;1.30;0.80;;;25.00;57.40;;;23.62;43.56;100483.31;10352786;28;97684;-89
2023/09/08 17:20:46;;;;;;;1.52;0.82;;;24.70;57.40;;;23.34;44.18;100484.19;10352404;28;96811;-90
2023/09/08 17:25:51;;;;;;;0.70;0.50;;;24.50;57.90;;;23.06;45.03;100495.06;10336051;28;97903;-90
2023/09/08 17:30:55;;;;;;;1.63;0.95;;;24.20;59.30;;;22.79;46.15;100494.75;10332275;28;98668;-91
2023/09/08 17:35:58;;;;;;;2.38;0.82;;;23.90;59.90;;;22.51;46.22;100503.69;10330743;28;97553;-91
2023/09/08 17:41:02;;;;;;;1.58;0.80;;;23.60;60.60;;;22.28;47.83;100520.81;10336169;28;97467;-90
2023/09/08 17:46:06;;;;;;;1.67;0.88;;;23.30;61.60;;;22.03;47.48;100521.84;10336324;28;98805;-90
2023/09/08 17:51:11;;;;;;;1.38;0.75;;;23.00;61.80;;;21.81;48.89;100521.59;10337084;28;96988;-90
2023/09/08 17:56:16;;;;;;;1.70;1.08;;;22.70;62.70;;;21.54;49.67;100523.09;10331975;28;97408;-90
2023/09/08 18:01:19;;;;;;;4.43;1.60;;;22.50;63.90;;;21.35;50.12;100530.44;10343727;28;96856;-90
2023/09/08 18:06:23;;;;;;;2.63;0.95;;;22.30;64.50;;;21.17;50.45;100541.25;10347901;28;97461;-90
2023/09/08 18:11:26;;;;;;;1.98;1.05;;;22.10;64.80;;;21.05;50.86;100544.75;10355775;28;96706;-90
2023/09/08 18:16:30;;;;;;;2.13;1.10;;;22.00;64.50;;;20.85;51.58;100553.09;10358745;28;96792;-90
2023/09/08 18:21:37;;;;;;;2.03;0.90;;;21.90;65.40;;;20.73;51.58;100554.91;10359703;28;96800;-89
2023/09/08 18:26:41;;;;;;;1.98;0.80;;;21.70;65.90;;;20.49;53.40;100539.63;10339020;28;98482;-90
2023/09/08 18:31:44;;;;;;;2.28;1.13;;;21.60;67.90;;;20.40;53.92;100552.56;10347393;28;96763;-90
2023/09/08 18:36:48;;;;;;;1.17;0.70;;;21.40;67.00;;;20.26;54.26;100551.84;10352865;28;96905;-90
2023/09/08 18:41:52;;;;;;;2.15;0.85;;;21.20;67.90;;;20.15;54.22;100554.47;10353560;28;98579;-89
2023/09/08 18:46:56;;;;;;;0.73;0.50;;;21.10;68.50;;;20.13;54.24;100551.16;10329731;28;97441;-89
2023/09/08 18:52:00;;;;;;;2.17;0.80;;;21.10;67.80;;;20.06;54.24;100543.13;10334319;28;98304;-89
2023/09/08 18:57:04;;;;;;;0.82;0.60;;;21.10;68.20;;;20.07;54.71;100542.09;10349731;28;96685;-87
2023/09/08 19:02:07;;;;;;;1.08;0.57;;;21.10;68.50;;;20.02;54.40;100545.44;10357437;28;97458;-87
2023/09/08 19:07:11;;;;;;;0.70;0.50;;;21.00;68.00;;;19.94;55.40;100555.69;10340482;28;96719;-88
2023/09/08 19:12:15;;;;;;;3.40;0.68;;;21.00;69.30;;;19.78;56.59;100549.78;10352121;28;96686;-88
2023/09/08 19:17:22;;;;;;;1.13;0.68;;;20.80;69.10;;;19.62;57.73;100547.66;10335886;28;96624;-87
2023/09/08 19:22:26;;;;;;;1.13;0.73;;;20.70;71.20;;;19.48;58.52;100544.19;10354616;28;97348;-88
2023/09/08 19:27:29;;;;;;;1.02;0.57;;;20.50;71.10;;;19.34;59.09;100550.72;10326872;28;96913;-92
2023/09/08 19:32:34;;;;;;;1.45;0.77;;;20.30;71.80;;;19.21;59.80;100553.47;10365689;28;96739;-91
2023/09/08 19:37:38;;;;;;;1.77;0.88;;;20.20;72.40;;;19.05;61.20;100559.38;10343859;28;98252;-91
2023/09/08 19:42:42;;;;;;;1.25;0.80;;;20.00;73.20;;;18.85;61.17;100544.13;10342159;28;96483;-91
2023/09/08 19:47:46;;;;;;;1.58;0.70;;;19.90;74.20;;;18.78;62.73;100554.09;10336287;28;96762;-91
2023/09/08 19:52:49;;;;;;;1.23;0.70;;;19.80;76.50;;;18.62;63.57;100558.03;10358122;28;96720;-90
2023/09/08 19:57:53;;;;;;;2.00;0.82;;;19.70;75.00;;;18.50;63.83;100553.53;10355195;28;96954;-91
2023/09/08 20:02:57;;;;;;;1.33;0.68;;;19.60;74.90;;;18.46;64.68;100563.88;10354622;28;96832;-91
2023/09/08 20:08:01;;;;;;;1.58;0.82;;;19.50;75.70;;;18.38;65.31;100556.88;10355064;28;96914;-91
2023/09/08 20:13:05;;;;;;;1.25;0.70;;;19.40;76.40;;;18.41;65.93;100569.06;10353839;28;96667;-91
2023/09/08 20:18:09;;;;;;;1.80;0.55;;;19.40;77.20;;;18.26;66.14;100561.22;10339201;28;97033;-91
2023/09/08 20:23:13;;;;;;;1.20;0.73;;;19.30;78.20;;;18.25;67.23;100566.84;10338077;28;96704;-91
2023/09/08 20:28:17;;;;;;;1.20;0.75;;;19.30;78.70;;;18.16;67.14;100558.97;10335409;28;96916;-91
2023/09/08 20:33:22;;;;;;;1.10;0.70;;;19.20;77.70;;;18.12;67.84;100555.06;10323915;28;96633;-92
2023/09/08 20:38:25;;;;;;;1.77;0.90;;;19.20;81.10;;;18.12;68.32;100560.44;10347541;28;96840;-90
2023/09/08 20:43:30;;;;;;;1.15;0.60;;;19.10;78.80;;;18.13;68.29;100561.25;10339625;28;96713;-91
2023/09/08 20:48:37;;;;;;;1.25;0.90;;;19.10;79.60;;;18.08;68.58;100566.44;10353276;28;96613;-91
2023/09/08 20:53:42;;;;;;;1.40;0.80;;;19.10;80.00;;;17.98;68.68;100556.06;10339938;28;96502;-91